Time;durP1;ratioP1;P1;durP2;ratioP2;P2;SDS_P1;SDS_P2;PMS_P1;PMS_P2;Temp;Humidity;BMP_temperature;BMP_pressure;BME280_temperature;BME280_humidity;BME280_pressure;Samples;Min_cycle;Max_cycle;Signal;HPM_P1;HPM_P2
2021/07/03 00:00:32;;;;;;;18.42;14.25;;;;;;;15.72;75.21;99678.69;4960077;28;20054;-75
2021/07/03 00:02:58;;;;;;;15.13;12.15;;;;;;;15.72;75.14;99676.03;4975891;28;20944;-74
2021/07/03 00:05:24;;;;;;;17.23;12.18;;;;;;;15.71;75.06;99673.50;4966676;28;20046;-74
2021/07/03 00:07:49;;;;;;;17.02;12.60;;;;;;;15.67;74.92;99684.31;4941920;28;20058;-75
2021/07/03 00:10:15;;;;;;;16.63;12.75;;;;;;;15.63;75.15;99685.50;4971352;28;20039;-76
2021/07/03 00:12:40;;;;;;;17.45;12.63;;;;;;;15.61;75.22;99686.56;4971838;28;20034;-75
2021/07/03 00:15:09;;;;;;;13.43;11.05;;;;;;;15.62;74.93;99682.94;4972282;28;20498;-75
2021/07/03 00:17:35;;;;;;;17.65;10.32;;;;;;;15.60;74.83;99685.72;4953495;28;20126;-75
2021/07/03 00:20:01;;;;;;;14.13;10.60;;;;;;;15.60;74.64;99682.19;4952667;28;20047;-76
2021/07/03 00:22:26;;;;;;;17.25;11.55;;;;;;;15.57;74.96;99688.59;4954119;28;20031;-75
2021/07/03 00:24:51;;;;;;;22.63;15.63;;;;;;;15.51;75.53;99691.69;4921255;28;20031;-76
2021/07/03 00:27:17;;;;;;;14.98;13.10;;;;;;;15.44;75.72;99687.78;4937084;28;20031;-76
2021/07/03 00:29:42;;;;;;;17.55;12.43;;;;;;;15.39;76.06;99687.25;4953865;28;20043;-74
2021/07/03 00:32:08;;;;;;;18.98;14.45;;;;;;;15.34;76.13;99684.06;4953780;28;20531;-74
2021/07/03 00:34:33;;;;;;;18.90;12.38;;;;;;;15.30;75.88;99686.06;4960403;28;20195;-74
2021/07/03 00:36:58;;;;;;;18.60;12.52;;;;;;;15.29;75.79;99689.69;4972305;28;20039;-74
2021/07/03 00:39:25;;;;;;;14.82;11.13;;;;;;;15.27;76.00;99685.47;4953818;28;20514;-74
2021/07/03 00:41:50;;;;;;;15.25;13.52;;;;;;;15.27;76.11;99685.47;4972760;28;20031;-75
2021/07/03 00:44:28;;;;;;;18.30;13.98;;;;;;;15.24;76.13;99682.06;4955299;28;20073;-74
2021/07/03 00:46:54;;;;;;;18.27;13.75;;;;;;;15.20;76.25;99682.38;4987265;28;20035;-73
2021/07/03 00:49:19;;;;;;;14.48;11.68;;;;;;;15.19;76.41;99688.66;4958564;28;20041;-75
2021/07/03 00:51:45;;;;;;;21.25;13.00;;;;;;;15.13;76.94;99681.09;4982322;28;20058;-78
2021/07/03 00:54:10;;;;;;;19.90;13.63;;;;;;;15.11;76.46;99681.22;4984015;28;20536;-73
2021/07/03 00:56:36;;;;;;;17.10;11.45;;;;;;;15.11;76.25;99686.53;4960764;28;20620;-74
2021/07/03 00:59:01;;;;;;;19.80;15.02;;;;;;;15.07;76.67;99678.88;4987622;28;20062;-74
2021/07/03 01:01:26;;;;;;;15.90;12.80;;;;;;;15.01;77.15;99686.31;4935997;28;20047;-74
2021/07/03 01:03:52;;;;;;;17.77;13.25;;;;;;;14.98;77.09;99678.56;4981801;28;20073;-73
2021/07/03 01:06:17;;;;;;;14.77;12.15;;;;;;;15.01;77.11;99669.53;4971371;28;20544;-74
2021/07/03 01:08:43;;;;;;;19.85;14.95;;;;;;;15.04;76.97;99677.28;4971480;28;20038;-74
2021/07/03 01:11:08;;;;;;;24.23;15.45;;;;;;;15.01;77.48;99673.06;4972080;28;20491;-74
2021/07/03 01:13:33;;;;;;;18.67;14.75;;;;;;;15.02;77.17;99672.09;4971765;28;20034;-74
2021/07/03 01:15:59;;;;;;;15.05;12.48;;;;;;;15.05;76.63;99663.06;4971921;28;20022;-74
2021/07/03 01:18:25;;;;;;;15.43;11.73;;;;;;;15.08;76.66;99668.13;4971502;28;20490;-74
2021/07/03 01:20:53;;;;;;;16.67;10.98;;;;;;;15.10;76.28;99663.56;4954052;28;20117;-74
2021/07/03 01:23:20;;;;;;;12.30;10.05;;;;;;;15.16;76.29;99667.59;4954327;28;20039;-74
2021/07/03 01:25:46;;;;;;;17.02;11.25;;;;;;;15.19;76.17;99665.59;4971678;28;20597;-75
2021/07/03 01:28:11;;;;;;;15.13;12.32;;;;;;;15.18;76.22;99661.22;4971376;28;20043;-74
2021/07/03 01:30:36;;;;;;;15.35;10.57;;;;;;;15.16;76.09;99665.81;4971860;28;20035;-73
2021/07/03 01:33:03;;;;;;;16.33;11.68;;;;;;;15.17;76.15;99664.84;4971731;28;20042;-75
2021/07/03 01:35:30;;;;;;;16.42;12.13;;;;;;;15.16;76.12;99664.94;4971016;28;20042;-74
2021/07/03 01:37:57;;;;;;;16.25;12.20;;;;;;;15.17;76.14;99669.31;4971115;28;20034;-74
2021/07/03 01:40:23;;;;;;;16.88;10.52;;;;;;;15.17;75.89;99670.16;4971351;28;20039;-73
2021/07/03 01:42:49;;;;;;;12.52;10.88;;;;;;;15.15;76.01;99665.91;4954202;28;20062;-74
2021/07/03 01:45:14;;;;;;;19.17;11.57;;;;;;;15.15;75.85;99666.75;4937785;28;20128;-74
2021/07/03 01:47:45;;;;;;;16.38;10.82;;;;;;;15.15;76.14;99664.09;4971323;28;20049;-74
2021/07/03 01:50:11;;;;;;;16.20;12.68;;;;;;;15.11;76.22;99659.09;4971056;28;20042;-74
2021/07/03 01:52:37;;;;;;;14.15;12.10;;;;;;;15.07;76.14;99661.16;4954355;28;20034;-74
2021/07/03 01:55:06;;;;;;;21.67;12.40;;;;;;;15.05;76.34;99665.72;4970902;28;20031;-74
2021/07/03 01:57:32;;;;;;;15.55;12.80;;;;;;;15.03;76.39;99664.97;4970523;28;20062;-74
2021/07/03 01:59:57;;;;;;;13.65;10.77;;;;;;;15.03;76.57;99663.16;4970455;28;20482;-74
2021/07/03 02:02:22;;;;;;;13.95;10.00;;;;;;;15.06;76.53;99663.91;4953469;28;20062;-76
2021/07/03 02:04:48;;;;;;;14.57;11.40;;;;;;;15.07;76.36;99669.09;4971639;28;20086;-74
2021/07/03 02:07:13;;;;;;;16.65;12.23;;;;;;;15.06;76.23;99664.75;4954765;28;20059;-75
2021/07/03 02:09:38;;;;;;;24.75;13.35;;;;;;;15.04;76.32;99658.72;4972142;28;20031;-75
2021/07/03 02:12:05;;;;;;;15.20;11.38;;;;;;;15.02;76.45;99665.94;4972761;28;20105;-75
2021/07/03 02:14:30;;;;;;;16.00;12.07;;;;;;;15.02;76.54;99661.47;4971911;28;20071;-74
2021/07/03 02:16:56;;;;;;;15.07;11.15;;;;;;;15.01;76.36;99653.59;4970622;28;20038;-75
2021/07/03 02:19:21;;;;;;;12.85;10.18;;;;;;;15.02;76.21;99656.16;4972442;28;20035;-76
2021/07/03 02:21:47;;;;;;;14.68;10.95;;;;;;;15.02;76.30;99650.84;4971602;28;20069;-75
2021/07/03 02:24:12;;;;;;;16.55;10.50;;;;;;;15.01;76.44;99649.16;4971474;28;20119;-75
2021/07/03 02:26:37;;;;;;;15.32;12.65;;;;;;;14.97;76.53;99641.50;4973529;28;20042;-75
2021/07/03 02:29:03;;;;;;;16.15;11.85;;;;;;;14.94;76.44;99642.56;4970302;28;20058;-75
2021/07/03 02:31:29;;;;;;;17.55;12.32;;;;;;;14.90;76.47;99640.22;4952855;28;20046;-74
2021/07/03 02:33:54;;;;;;;15.38;11.65;;;;;;;14.89;76.90;99639.41;4953521;28;20046;-75
2021/07/03 02:36:20;;;;;;;14.75;11.77;;;;;;;14.90;76.64;99634.94;4971044;28;20514;-75
2021/07/03 02:38:46;;;;;;;13.85;10.23;;;;;;;14.89;76.55;99630.56;4953466;28;20035;-75
2021/07/03 02:41:12;;;;;;;14.15;10.25;;;;;;;14.87;76.38;99633.34;4970541;28;20026;-74
2021/07/03 02:43:37;;;;;;;15.60;11.10;;;;;;;14.88;76.56;99636.84;4971121;28;20797;-74
2021/07/03 02:46:02;;;;;;;13.70;11.27;;;;;;;14.86;76.30;99628.13;4970958;28;20027;-74
2021/07/03 02:48:28;;;;;;;14.50;12.20;;;;;;;14.81;76.48;99621.31;4970547;28;20027;-75
2021/07/03 02:50:53;;;;;;;16.30;12.30;;;;;;;14.78;76.78;99626.00;4973353;28;20082;-74
2021/07/03 02:53:19;;;;;;;12.05;10.10;;;;;;;14.78;76.54;99621.53;4959025;28;20035;-75
2021/07/03 02:55:44;;;;;;;27.55;10.88;;;;;;;14.81;76.29;99621.31;4974098;28;20410;-74
2021/07/03 02:58:09;;;;;;;11.15;9.43;;;;;;;14.86;76.23;99622.81;4957185;28;20042;-74
2021/07/03 03:00:35;;;;;;;12.35;9.50;;;;;;;14.90;76.07;99613.69;4974286;28;20046;-74
2021/07/03 03:03:00;;;;;;;15.05;9.75;;;;;;;14.95;75.59;99611.56;4957219;28;20106;-74
2021/07/03 03:05:26;;;;;;;10.18;8.60;;;;;;;14.99;75.33;99611.25;4972027;28;20051;-74
2021/07/03 03:07:51;;;;;;;18.13;10.25;;;;;;;15.01;75.17;99606.69;4970356;28;20027;-74
2021/07/03 03:10:18;;;;;;;15.02;9.60;;;;;;;15.03;75.14;99604.75;4969947;28;20119;-74
2021/07/03 03:12:45;;;;;;;9.25;8.02;;;;;;;15.09;74.86;99611.44;4971498;28;20058;-73
2021/07/03 03:15:12;;;;;;;15.52;10.85;;;;;;;15.14;74.42;99614.63;4974551;28;20167;-74
2021/07/03 03:17:39;;;;;;;11.68;8.95;;;;;;;15.18;74.89;99615.22;4973984;28;20023;-74
2021/07/03 03:20:06;;;;;;;13.82;10.48;;;;;;;15.16;74.48;99611.84;4957367;28;20035;-74
2021/07/03 03:22:32;;;;;;;10.93;9.35;;;;;;;15.09;74.96;99619.41;4974177;28;20037;-75
2021/07/03 03:24:57;;;;;;;13.45;10.27;;;;;;;15.08;74.84;99617.69;4974254;28;20043;-74
2021/07/03 03:27:22;;;;;;;13.05;10.13;;;;;;;15.09;74.73;99615.88;4973497;28;20495;-74
2021/07/03 03:29:48;;;;;;;12.85;10.35;;;;;;;15.09;75.11;99618.53;4956577;28;20109;-74
2021/07/03 03:32:13;;;;;;;11.20;8.98;;;;;;;15.08;74.87;99623.00;4973630;28;20527;-74
2021/07/03 03:34:39;;;;;;;12.85;10.50;;;;;;;15.07;74.81;99616.00;4973762;28;20490;-75
2021/07/03 03:37:04;;;;;;;15.73;10.50;;;;;;;15.00;75.46;99612.94;4973991;28;20045;-74
2021/07/03 03:39:29;;;;;;;15.00;9.70;;;;;;;14.99;75.62;99602.44;4956637;28;20034;-74
2021/07/03 03:41:55;;;;;;;10.68;9.57;;;;;;;14.99;75.45;99603.28;4973496;28;20058;-74
2021/07/03 03:44:21;;;;;;;16.30;10.18;;;;;;;14.98;75.71;99606.03;4973613;28;20438;-73
2021/07/03 03:46:51;;;;;;;12.20;9.30;;;;;;;14.97;75.23;99599.88;4973097;28;20058;-73
2021/07/03 03:49:17;;;;;;;12.60;10.80;;;;;;;14.99;75.40;99597.97;4973500;28;20035;-74
2021/07/03 03:51:42;;;;;;;11.40;10.20;;;;;;;14.98;75.69;99590.09;4973622;28;20038;-73
2021/07/03 03:54:08;;;;;;;13.82;9.75;;;;;;;14.99;75.56;99595.31;4956775;28;20035;-75
2021/07/03 03:56:33;;;;;;;11.63;9.30;;;;;;;14.98;75.31;99596.25;4973098;28;20372;-74
2021/07/03 03:58:58;;;;;;;12.27;8.80;;;;;;;14.98;75.29;99592.75;4973734;28;21842;-74
2021/07/03 04:01:24;;;;;;;16.00;10.02;;;;;;;14.97;75.59;99596.38;4973803;28;20446;-75
2021/07/03 04:03:49;;;;;;;18.08;10.20;;;;;;;14.93;75.65;99586.94;4974681;28;20490;-74
2021/07/03 04:06:14;;;;;;;10.95;9.57;;;;;;;14.93;75.41;99598.38;4975331;28;20171;-76
2021/07/03 04:08:40;;;;;;;11.63;8.80;;;;;;;14.95;75.42;99587.66;4973600;28;20050;-74
2021/07/03 04:11:05;;;;;;;14.98;9.40;;;;;;;14.99;75.08;99590.00;4956419;28;20039;-75
2021/07/03 04:13:30;;;;;;;10.25;8.10;;;;;;;15.05;74.44;99591.38;4957775;28;20038;-75
2021/07/03 04:15:56;;;;;;;10.15;7.60;;;;;;;15.11;74.32;99585.63;4976259;28;20038;-75
2021/07/03 04:18:21;;;;;;;10.38;8.85;;;;;;;15.17;73.98;99579.88;4973155;28;20031;-74
2021/07/03 04:20:46;;;;;;;13.23;9.38;;;;;;;15.19;73.85;99588.59;4975058;28;20035;-74
2021/07/03 04:23:12;;;;;;;11.45;9.73;;;;;;;15.20;74.10;99592.94;4975706;28;20042;-74
2021/07/03 04:25:37;;;;;;;12.75;9.13;;;;;;;15.20;74.03;99584.97;4974506;28;20055;-74
2021/07/03 04:28:03;;;;;;;10.73;9.23;;;;;;;15.23;73.82;99584.75;4974091;28;20039;-74
2021/07/03 04:30:28;;;;;;;12.18;10.30;;;;;;;15.27;73.87;99584.53;4956824;28;20093;-74
2021/07/03 04:32:54;;;;;;;13.00;8.98;;;;;;;15.24;74.41;99586.44;4973855;28;20046;-73
2021/07/03 04:35:19;;;;;;;11.95;9.90;;;;;;;15.24;74.48;99589.09;4973155;28;20047;-74
2021/07/03 04:37:45;;;;;;;11.48;9.15;;;;;;;15.25;74.55;99590.78;4972805;28;20038;-75
2021/07/03 04:40:10;;;;;;;10.32;9.18;;;;;;;15.27;74.53;99592.50;4972652;28;20058;-75
2021/07/03 04:42:37;;;;;;;11.30;9.40;;;;;;;15.29;74.39;99596.75;4973002;28;20125;-74
2021/07/03 04:45:04;;;;;;;28.35;9.15;;;;;;;15.33;74.54;99592.88;4955214;28;20113;-74
2021/07/03 04:47:29;;;;;;;12.93;9.45;;;;;;;15.38;74.70;99588.13;4971930;28;20034;-75
2021/07/03 04:49:54;;;;;;;10.50;8.10;;;;;;;15.44;74.40;99585.00;4972032;28;20089;-74
2021/07/03 04:52:20;;;;;;;12.15;7.85;;;;;;;15.53;74.41;99596.78;4954778;28;20034;-74
2021/07/03 04:54:45;;;;;;;12.80;8.52;;;;;;;15.60;74.15;99600.69;4972033;28;20141;-75
2021/07/03 04:57:11;;;;;;;13.02;8.95;;;;;;;15.65;73.78;99601.19;4954638;28;20118;-74
2021/07/03 04:59:41;;;;;;;9.10;7.82;;;;;;;15.72;74.09;99601.59;4954586;28;20487;-74
2021/07/03 05:02:09;;;;;;;8.63;6.82;;;;;;;15.79;73.92;99591.38;4955956;28;20125;-75
2021/07/03 05:04:36;;;;;;;12.45;8.02;;;;;;;15.88;74.17;99596.88;4972136;28;20122;-74
2021/07/03 05:07:02;;;;;;;9.35;7.28;;;;;;;15.99;73.62;99598.72;4971553;28;20026;-74
2021/07/03 05:09:28;;;;;;;9.80;7.13;;;;;;;16.13;73.46;99591.53;4971891;28;20085;-74
2021/07/03 05:11:53;;;;;;;8.00;6.68;;;;;;;16.33;73.01;99595.34;4971809;28;20031;-76
2021/07/03 05:14:19;;;;;;;8.55;6.97;;;;;;;16.58;71.98;99594.28;4971316;28;20097;-74
2021/07/03 05:16:44;;;;;;;13.43;7.75;;;;;;;16.83;71.33;99594.09;4954185;28;20035;-74
2021/07/03 05:19:10;;;;;;;12.77;7.13;;;;;;;17.07;70.52;99595.81;4972149;28;20035;-76
2021/07/03 05:21:35;;;;;;;11.07;7.88;;;;;;;17.23;70.11;99600.75;4954364;28;20058;-74
2021/07/03 05:24:00;;;;;;;12.50;8.60;;;;;;;17.38;69.44;99596.88;4954396;28;20049;-75
2021/07/03 05:26:26;;;;;;;9.48;7.18;;;;;;;17.54;69.16;99596.47;4971341;28;20054;-77
2021/07/03 05:28:51;;;;;;;7.15;6.28;;;;;;;17.70;68.85;99583.59;4954103;28;20185;-74
2021/07/03 05:31:16;;;;;;;9.73;6.95;;;;;;;17.87;68.61;99578.72;4971274;28;20038;-73
2021/07/03 05:33:42;;;;;;;9.80;7.93;;;;;;;17.97;69.04;99588.50;4971848;28;20062;-75
2021/07/03 05:36:07;;;;;;;10.88;6.93;;;;;;;18.13;68.24;99590.72;4954593;28;20038;-76
2021/07/03 05:38:40;;;;;;;10.25;7.53;;;;;;;18.32;67.53;99586.53;4970925;28;20440;-75
2021/07/03 05:41:06;;;;;;;8.77;7.22;;;;;;;18.60;66.97;99575.16;4971770;28;20376;-76
2021/07/03 05:43:31;;;;;;;11.18;7.40;;;;;;;18.93;65.63;99575.94;4954131;28;20036;-76
2021/07/03 05:45:56;;;;;;;11.82;7.53;;;;;;;19.31;64.42;99583.22;4971750;28;20376;-75
2021/07/03 05:48:22;;;;;;;10.68;6.75;;;;;;;19.57;63.97;99577.38;4971362;28;20459;-75
2021/07/03 05:50:48;;;;;;;15.13;7.32;;;;;;;19.77;62.92;99578.28;4971296;28;20023;-75
2021/07/03 05:53:13;;;;;;;12.82;7.60;;;;;;;20.06;61.89;99572.06;4953865;28;20399;-75
2021/07/03 05:55:39;;;;;;;15.65;9.48;;;;;;;20.40;59.97;99567.09;4953973;28;20053;-74
2021/07/03 05:58:04;;;;;;;11.52;7.30;;;;;;;20.70;60.24;99560.75;4971006;28;20075;-75
2021/07/03 06:00:29;;;;;;;27.05;8.30;;;;;;;21.05;58.52;99564.56;4972461;28;20115;-75
2021/07/03 06:02:55;;;;;;;11.57;6.80;;;;;;;21.23;57.48;99565.44;4972065;28;20456;-74
2021/07/03 06:05:20;;;;;;;14.75;7.13;;;;;;;21.28;57.42;99569.50;4955016;28;20034;-74
2021/07/03 06:07:46;;;;;;;12.65;7.93;;;;;;;21.22;58.08;99562.91;4971482;28;20057;-74
2021/07/03 06:10:12;;;;;;;12.60;7.70;;;;;;;21.23;58.25;99564.59;4953934;28;20090;-74
2021/07/03 06:12:38;;;;;;;15.35;8.38;;;;;;;21.34;57.90;99563.53;4972067;28;20026;-74
2021/07/03 06:15:05;;;;;;;11.10;7.43;;;;;;;21.52;57.21;99568.97;4970768;28;20097;-74
2021/07/03 06:17:31;;;;;;;13.48;8.90;;;;;;;21.57;57.09;99561.31;4970365;28;20039;-74
2021/07/03 06:19:57;;;;;;;10.45;7.10;;;;;;;21.67;57.52;99551.38;4971166;28;20106;-74
2021/07/03 06:22:22;;;;;;;12.88;7.32;;;;;;;21.81;55.99;99558.88;4970496;28;20114;-74
2021/07/03 06:24:48;;;;;;;20.55;9.60;;;;;;;21.94;55.43;99558.50;4970996;28;20050;-75
2021/07/03 06:27:14;;;;;;;9.48;8.30;;;;;;;21.97;55.37;99555.50;4969990;28;20509;-75
2021/07/03 06:29:39;;;;;;;13.55;7.82;;;;;;;21.93;56.15;99545.22;4974635;28;20396;-74
2021/07/03 06:32:06;;;;;;;11.18;7.32;;;;;;;21.99;56.76;99547.31;4970527;28;20113;-75
2021/07/03 06:34:32;;;;;;;13.45;8.48;;;;;;;21.99;55.87;99547.31;4953311;28;20043;-75
2021/07/03 06:36:57;;;;;;;10.25;7.18;;;;;;;21.90;56.48;99543.69;4970588;28;20042;-74
2021/07/03 06:39:23;;;;;;;7.68;5.90;;;;;;;21.93;55.47;99540.72;4952738;28;20470;-74
2021/07/03 06:41:48;;;;;;;7.82;5.63;;;;;;;22.00;56.28;99543.59;4970503;28;20042;-73
2021/07/03 06:44:14;;;;;;;11.35;6.95;;;;;;;22.14;55.71;99547.59;4953675;28;20446;-75
2021/07/03 06:46:39;;;;;;;11.88;6.05;;;;;;;22.24;56.02;99545.69;4971570;28;20035;-75
2021/07/03 06:49:05;;;;;;;7.82;5.95;;;;;;;22.41;55.34;99543.97;4974620;28;20734;-74
2021/07/03 06:51:30;;;;;;;7.43;5.85;;;;;;;22.58;55.35;99542.22;4974139;28;20514;-73
2021/07/03 06:54:00;;;;;;;9.63;5.75;;;;;;;22.75;54.86;99552.06;4974537;28;20042;-74
2021/07/03 06:56:25;;;;;;;7.50;6.63;;;;;;;22.97;54.04;99552.50;4958777;28;20035;-74
2021/07/03 06:58:51;;;;;;;8.57;7.13;;;;;;;23.13;52.82;99552.59;4974473;28;20027;-74
2021/07/03 07:01:16;;;;;;;12.18;6.55;;;;;;;23.12;52.94;99553.63;4956768;28;20050;-76
2021/07/03 07:03:41;;;;;;;6.38;5.47;;;;;;;23.11;51.43;99552.78;4974052;28;20030;-74
2021/07/03 07:06:07;;;;;;;7.30;4.88;;;;;;;23.09;51.24;99545.88;4974436;28;20035;-74
2021/07/03 07:08:32;;;;;;;8.93;5.53;;;;;;;22.99;51.91;99550.50;4974522;28;20031;-75
2021/07/03 07:10:58;;;;;;;14.13;6.63;;;;;;;23.03;51.74;99547.34;4972867;28;20569;-75
2021/07/03 07:13:23;;;;;;;12.80;6.32;;;;;;;23.10;50.44;99543.00;4957092;28;20038;-73
2021/07/03 07:15:48;;;;;;;6.43;4.88;;;;;;;23.28;50.35;99536.69;4957513;28;20039;-75
2021/07/03 07:18:14;;;;;;;11.57;5.10;;;;;;;23.46;50.02;99536.59;4975384;28;20077;-73
2021/07/03 07:20:40;;;;;;;15.90;6.20;;;;;;;23.56;49.92;99540.78;4976569;28;20059;-75
2021/07/03 07:23:05;;;;;;;7.57;5.65;;;;;;;23.64;48.53;99536.44;4958439;28;20037;-74
2021/07/03 07:25:31;;;;;;;6.80;5.05;;;;;;;23.75;48.89;99537.00;4974914;28;20215;-75
2021/07/03 07:27:56;;;;;;;6.55;4.88;;;;;;;23.83;47.01;99536.16;4957973;28;20058;-75
2021/07/03 07:30:21;;;;;;;5.85;4.82;;;;;;;24.06;45.38;99524.72;4976000;28;20035;-74
2021/07/03 07:32:47;;;;;;;6.50;4.90;;;;;;;24.47;45.32;99522.84;4974316;28;20114;-75
2021/07/03 07:35:13;;;;;;;8.50;4.95;;;;;;;24.60;44.61;99520.44;4974115;28;20035;-75
2021/07/03 07:37:39;;;;;;;7.28;5.28;;;;;;;25.03;43.38;99521.00;4975056;28;20560;-75
2021/07/03 07:40:05;;;;;;;6.28;4.63;;;;;;;25.57;41.97;99522.06;4974502;28;20034;-75
2021/07/03 07:42:30;;;;;;;5.30;4.43;;;;;;;26.21;39.60;99522.63;4977778;28;20525;-76
2021/07/03 07:44:55;;;;;;;4.63;4.15;;;;;;;26.97;38.50;99523.31;4976989;28;20031;-75
2021/07/03 07:47:21;;;;;;;5.25;3.97;;;;;;;27.49;38.21;99526.06;4976273;28;20046;-74
2021/07/03 07:49:46;;;;;;;6.88;4.47;;;;;;;27.78;37.09;99523.22;4975640;28;20031;-75
2021/07/03 07:52:12;;;;;;;5.40;4.88;;;;;;;27.78;36.66;99520.53;4974074;28;20117;-74
2021/07/03 07:54:37;;;;;;;5.78;4.32;;;;;;;27.98;36.21;99523.44;4974579;28;20085;-75
2021/07/03 07:57:03;;;;;;;5.32;4.40;;;;;;;28.03;35.95;99523.72;4973331;28;20064;-75
2021/07/03 07:59:28;;;;;;;5.05;3.97;;;;;;;28.14;36.27;99522.34;4956043;28;20085;-74
2021/07/03 08:01:54;;;;;;;5.03;4.07;;;;;;;28.00;35.95;99526.81;4956717;28;20039;-77
2021/07/03 08:04:19;;;;;;;4.88;4.38;;;;;;;27.77;36.50;99520.72;4974529;28;20034;-74
2021/07/03 08:06:44;;;;;;;6.53;5.80;;;;;;;27.68;36.99;99521.88;4974619;28;20045;-75
2021/07/03 08:09:10;;;;;;;6.63;5.00;;;;;;;27.57;36.84;99525.94;4975618;28;20421;-76
2021/07/03 08:11:35;;;;;;;6.00;5.07;;;;;;;27.35;38.09;99511.53;4988619;28;20102;-73
2021/07/03 08:14:01;;;;;;;7.30;4.65;;;;;;;27.31;37.87;99516.47;4976011;28;20034;-75
2021/07/03 08:16:26;;;;;;;8.13;4.50;;;;;;;27.32;38.39;99514.59;4988694;28;20023;-66
2021/07/03 08:18:52;;;;;;;6.20;4.57;;;;;;;27.25;38.52;99516.44;4991589;28;20038;-66
2021/07/03 08:21:17;;;;;;;6.40;4.90;;;;;;;27.27;38.58;99520.63;4975232;28;20086;-61
2021/07/03 08:23:43;;;;;;;6.63;4.97;;;;;;;27.12;39.21;99512.50;4977860;28;20059;-58
2021/07/03 08:26:09;;;;;;;24.08;6.63;;;;;;;27.02;39.14;99517.34;4981651;28;20061;-58
2021/07/03 08:28:34;;;;;;;20.67;5.43;;;;;;;26.95;39.09;99516.41;4982099;28;20058;-60
2021/07/03 08:31:00;;;;;;;6.60;4.65;;;;;;;27.01;38.89;99529.22;4953779;28;20188;-59
2021/07/03 08:33:25;;;;;;;6.80;4.90;;;;;;;26.99;38.85;99515.84;4987868;28;20039;-59
2021/07/03 08:35:51;;;;;;;6.18;4.30;;;;;;;27.08;37.99;99518.47;4965961;28;20058;-59
2021/07/03 08:38:16;;;;;;;5.65;4.88;;;;;;;26.87;38.54;99508.41;4980250;28;20507;-59
2021/07/03 08:40:42;;;;;;;4.53;4.13;;;;;;;26.82;38.64;99518.97;4982621;28;20045;-59
2021/07/03 08:43:07;;;;;;;5.05;4.10;;;;;;;26.82;38.09;99514.38;4990366;28;20037;-59
2021/07/03 08:45:34;;;;;;;5.18;4.40;;;;;;;26.68;38.31;99509.81;4978334;28;20482;-60
2021/07/03 08:47:59;;;;;;;6.70;4.22;;;;;;;26.33;39.72;99510.31;4972859;28;20125;-60
2021/07/03 08:50:24;;;;;;;7.43;4.47;;;;;;;26.30;39.90;99509.84;4983768;28;20497;-57
2021/07/03 08:52:50;;;;;;;11.50;4.60;;;;;;;26.50;40.08;99502.03;4971844;28;20041;-55
2021/07/03 08:55:20;;;;;;;6.00;4.47;;;;;;;26.60;39.03;99505.34;4981234;28;20039;-59
2021/07/03 08:57:51;;;;;;;5.93;5.32;;;;;;;26.40;39.92;99506.88;4980813;28;20033;-55
2021/07/03 09:00:42;;;;;;;6.03;5.18;;;;;;;26.49;40.14;99497.66;4970401;28;20034;-50
2021/07/03 09:03:13;;;;;;;5.43;4.93;;;;;;;26.83;39.10;99498.97;4952355;28;20151;-59
2021/07/03 09:05:39;;;;;;;6.85;4.75;;;;;;;27.13;37.79;99502.50;4970016;28;20039;-58
2021/07/03 09:08:07;;;;;;;4.82;4.43;;;;;;;27.38;37.42;99498.44;4985908;28;20031;-58
2021/07/03 09:10:34;;;;;;;4.38;3.97;;;;;;;28.31;34.41;99492.25;4967278;28;20046;-66
2021/07/03 09:13:01;;;;;;;7.75;4.22;;;;;;;29.30;32.81;99495.50;4968518;28;20525;-65
2021/07/03 09:15:32;;;;;;;4.70;4.03;;;;;;;30.07;32.53;99490.63;4971094;28;20118;-66
2021/07/03 09:18:03;;;;;;;7.45;4.45;;;;;;;30.88;31.00;99486.75;4967706;28;20035;-64
2021/07/03 09:20:39;;;;;;;5.88;3.67;;;;;;;31.25;30.18;99487.00;4972863;28;20043;-67
2021/07/03 09:23:11;;;;;;;4.63;3.70;;;;;;;31.23;29.69;99486.38;4972928;28;20042;-66
2021/07/03 09:25:43;;;;;;;5.07;4.20;;;;;;;30.39;30.78;99493.56;4979069;28;20046;-66
2021/07/03 09:28:17;;;;;;;4.68;4.28;;;;;;;30.38;30.70;99492.72;4966773;28;20030;-67
2021/07/03 09:30:45;;;;;;;5.32;3.88;;;;;;;30.74;30.09;99494.13;4956650;28;20042;-67
2021/07/03 09:33:16;;;;;;;5.75;3.58;;;;;;;31.13;29.66;99486.03;4981312;28;20035;-66
2021/07/03 09:35:42;;;;;;;4.38;3.50;;;;;;;31.75;28.77;99481.72;4979885;28;20519;-67
2021/07/03 09:38:08;;;;;;;4.63;4.22;;;;;;;31.87;27.77;99482.66;4973733;28;20057;-67
2021/07/03 09:40:36;;;;;;;6.15;4.25;;;;;;;32.30;28.10;99478.31;4970272;28;20708;-67
2021/07/03 09:43:06;;;;;;;7.50;4.40;;;;;;;32.64;27.25;99478.84;4969938;28;20043;-66
2021/07/03 09:45:32;;;;;;;5.43;4.38;;;;;;;32.78;26.35;99474.88;4963772;28;20050;-66
2021/07/03 09:48:11;;;;;;;9.05;4.43;;;;;;;32.90;26.11;99473.06;4980408;28;20046;-66
2021/07/03 09:50:39;;;;;;;4.63;4.22;;;;;;;33.29;25.34;99476.38;4962551;28;20042;-67
2021/07/03 09:53:06;;;;;;;6.00;3.80;;;;;;;33.24;24.45;99469.94;4963668;28;20055;-66
2021/07/03 09:55:32;;;;;;;3.70;3.03;;;;;;;32.52;25.97;99465.13;4969484;28;20034;-66
2021/07/03 09:57:59;;;;;;;6.70;3.35;;;;;;;31.50;26.48;99464.47;4979056;28;20042;-66
2021/07/03 10:00:25;;;;;;;5.22;3.50;;;;;;;31.13;27.43;99469.69;4985343;28;20173;-66
2021/07/03 10:02:50;;;;;;;3.83;3.10;;;;;;;30.95;27.89;99462.22;4973220;28;20455;-72
2021/07/03 10:05:19;;;;;;;5.85;3.72;;;;;;;30.52;29.01;99465.47;4970781;28;20114;-73
2021/07/03 10:07:48;;;;;;;3.75;3.00;;;;;;;30.08;30.09;99469.72;4951220;28;20035;-73
2021/07/03 10:10:17;;;;;;;7.57;4.28;;;;;;;29.80;30.07;99469.91;4967980;28;20498;-74
2021/07/03 10:12:48;;;;;;;4.18;3.33;;;;;;;29.91;29.95;99470.13;4970236;28;20038;-74
2021/07/03 10:15:15;;;;;;;7.22;3.88;;;;;;;29.52;31.16;99470.91;4969317;28;20216;-74
2021/07/03 10:17:40;;;;;;;5.28;3.55;;;;;;;29.32;31.37;99477.13;4970183;28;20038;-74
2021/07/03 10:20:14;;;;;;;4.32;3.40;;;;;;;29.39;31.18;99471.72;4969958;28;20034;-74
2021/07/03 10:22:51;;;;;;;4.05;3.42;;;;;;;29.66;30.66;99478.06;4970880;28;20043;-74
2021/07/03 10:25:16;;;;;;;3.85;3.30;;;;;;;29.74;30.75;99464.28;4970951;28;20035;-73
2021/07/03 10:27:54;;;;;;;6.80;3.90;;;;;;;30.00;30.57;99462.59;4953726;28;20495;-72
2021/07/03 10:30:26;;;;;;;4.50;3.95;;;;;;;29.91;30.41;99458.44;4953047;28;20058;-73
2021/07/03 10:33:00;;;;;;;4.32;3.63;;;;;;;29.81;30.38;99453.41;4970635;28;20031;-72
2021/07/03 10:35:26;;;;;;;5.65;3.58;;;;;;;29.78;30.40;99463.84;4970018;28;20039;-73
2021/07/03 10:37:52;;;;;;;4.68;3.88;;;;;;;29.92;30.56;99462.81;4970401;28;20449;-73
2021/07/03 10:40:29;;;;;;;4.88;3.80;;;;;;;30.43;29.23;99451.28;4970337;28;20031;-74
2021/07/03 10:43:07;;;;;;;8.45;3.97;;;;;;;30.45;29.69;99448.34;4953306;28;20125;-74
2021/07/03 10:45:44;;;;;;;5.95;3.70;;;;;;;30.66;29.03;99441.78;4970886;28;20031;-72
2021/07/03 10:48:19;;;;;;;4.35;3.90;;;;;;;30.79;29.62;99445.31;4963029;28;20022;-73
2021/07/03 10:50:46;;;;;;;4.72;3.90;;;;;;;31.02;29.14;99447.53;4953018;28;20487;-73
2021/07/03 10:53:37;;;;;;;6.40;3.58;;;;;;;30.75;29.43;99443.22;4970841;28;20459;-72
2021/07/03 10:56:15;;;;;;;4.80;3.92;;;;;;;30.29;29.89;99442.31;4970321;28;20045;-74
2021/07/03 10:58:42;;;;;;;4.45;4.00;;;;;;;30.47;29.73;99438.06;4970387;28;20033;-73
2021/07/03 11:01:13;;;;;;;5.25;3.58;;;;;;;30.63;29.80;99434.06;4970531;28;20030;-73
2021/07/03 11:03:47;;;;;;;5.35;4.20;;;;;;;30.43;29.87;99437.69;4952990;28;20093;-72
2021/07/03 11:06:21;;;;;;;7.15;3.90;;;;;;;30.10;30.24;99441.28;4970926;28;20514;-73
2021/07/03 11:08:48;;;;;;;4.07;3.28;;;;;;;29.73;30.86;99432.72;4970552;28;20042;-72
2021/07/03 11:11:16;;;;;;;4.72;4.10;;;;;;;29.66;31.32;99434.59;4937727;28;20086;-73
2021/07/03 11:13:44;;;;;;;7.82;4.07;;;;;;;29.41;32.13;99431.63;4986749;28;20113;-72
2021/07/03 11:16:14;;;;;;;6.78;4.10;;;;;;;29.17;33.24;99435.75;4969495;28;20054;-73
2021/07/03 11:18:41;;;;;;;4.95;4.15;;;;;;;29.02;32.71;99435.00;4987680;28;20046;-73
2021/07/03 11:21:12;;;;;;;6.55;3.60;;;;;;;29.01;33.06;99433.34;4989825;28;20053;-74
2021/07/03 11:23:38;;;;;;;6.47;4.95;;;;;;;28.96;32.99;99427.69;4989698;28;20042;-74